createdAt,value
2019-02-06T00:00:55.475Z,21.73
2019-02-06T00:03:24.855Z,22.30
2019-02-06T00:05:54.030Z,23.30
2019-02-06T00:08:42.301Z,22.20
2019-02-06T00:11:11.877Z,24.02
2019-02-06T00:13:41.035Z,22.95
2019-02-06T00:16:10.168Z,22.82
2019-02-06T00:18:39.358Z,22.87
2019-02-06T00:21:08.459Z,22.90
2019-02-06T00:23:37.630Z,22.70
2019-02-06T00:26:06.742Z,23.73
2019-02-06T00:28:35.904Z,23.40
2019-02-06T00:31:05.060Z,22.82
2019-02-06T00:33:34.158Z,22.73
2019-02-06T00:36:03.308Z,24.35
2019-02-06T00:38:32.453Z,22.77
2019-02-06T00:41:01.557Z,22.52
2019-02-06T00:43:30.647Z,24.40
2019-02-06T00:45:59.801Z,23.80
2019-02-06T00:48:29.779Z,22.27
2019-02-06T00:50:58.852Z,26.12
2019-02-06T00:53:28.059Z,26.07
2019-02-06T00:55:57.175Z,24.27
2019-02-06T00:58:26.553Z,23.87
2019-02-06T01:00:55.857Z,23.85
2019-02-06T01:03:25.005Z,23.98
2019-02-06T01:06:13.192Z,22.55
2019-02-06T01:08:42.773Z,24.92
2019-02-06T01:11:11.949Z,24.32
2019-02-06T01:13:41.039Z,23.67
2019-02-06T01:16:10.128Z,24.92
2019-02-06T01:18:39.279Z,23.15
2019-02-06T01:21:08.439Z,26.00
2019-02-06T01:23:37.536Z,24.10
2019-02-06T01:26:06.628Z,23.55
2019-02-06T01:28:35.733Z,25.27
2019-02-06T01:31:09.586Z,24.95
2019-02-06T01:33:38.662Z,23.85
2019-02-06T01:36:07.756Z,24.25
2019-02-06T01:38:36.849Z,23.45
2019-02-06T01:41:06.200Z,24.75
2019-02-06T01:43:35.264Z,23.25
2019-02-06T01:46:04.410Z,25.82
2019-02-06T01:48:33.522Z,24.57
2019-02-06T01:51:02.624Z,25.10
2019-02-06T01:53:31.803Z,25.75
2019-02-06T01:56:01.271Z,26.30
2019-02-06T01:58:30.446Z,25.25
2019-02-06T02:00:59.741Z,23.73
2019-02-06T02:03:28.847Z,23.87
2019-02-06T02:06:02.370Z,24.82
2019-02-06T02:08:30.262Z,24.82
2019-02-06T02:10:59.730Z,24.30
2019-02-06T02:13:28.817Z,23.07
2019-02-06T02:15:57.912Z,24.50
2019-02-06T02:18:27.098Z,24.07
2019-02-06T02:20:56.198Z,23.67
2019-02-06T02:23:25.289Z,23.18
2019-02-06T02:25:54.434Z,24.82
2019-02-06T02:28:23.542Z,24.65
2019-02-06T02:30:54.763Z,24.85
2019-02-06T02:33:23.848Z,23.00
2019-02-06T02:35:52.974Z,25.35
2019-02-06T02:38:22.060Z,24.70
2019-02-06T02:40:51.679Z,24.20
2019-02-06T02:43:20.782Z,23.05
2019-02-06T02:45:50.046Z,22.37
2019-02-06T02:48:19.238Z,22.52
2019-02-06T02:50:48.374Z,22.73
2019-02-06T02:53:17.468Z,22.45
2019-02-06T02:55:46.583Z,25.10
2019-02-06T02:58:15.667Z,21.93
2019-02-06T03:01:02.755Z,22.75
2019-02-06T03:03:49.940Z,23.83
2019-02-06T03:06:27.597Z,23.77
2019-02-06T03:08:49.906Z,24.50
2019-02-06T03:11:19.013Z,23.18
2019-02-06T03:13:48.173Z,23.47
2019-02-06T03:16:17.250Z,23.18
2019-02-06T03:18:46.750Z,23.70
2019-02-06T03:21:15.818Z,23.30
2019-02-06T03:23:44.864Z,23.12
2019-02-06T03:26:13.957Z,25.32
2019-02-06T03:28:42.956Z,24.10
2019-02-06T03:31:12.074Z,23.98
2019-02-06T03:33:41.176Z,23.75
2019-02-06T03:36:10.282Z,25.10
2019-02-06T03:38:39.354Z,25.72
2019-02-06T03:41:08.454Z,25.45
2019-02-06T03:43:37.538Z,23.73
2019-02-06T03:46:06.646Z,24.65
2019-02-06T03:48:35.737Z,24.20
2019-02-06T03:51:05.197Z,24.95
2019-02-06T03:53:34.280Z,24.05
2019-02-06T03:56:03.398Z,25.43
2019-02-06T03:58:32.474Z,24.25
2019-02-06T04:01:01.668Z,24.65
2019-02-06T04:03:30.756Z,23.35
2019-02-06T04:06:00.309Z,23.60
2019-02-06T04:08:29.407Z,22.82
2019-02-06T04:10:58.564Z,26.90
2019-02-06T04:13:27.634Z,23.47
2019-02-06T04:15:56.702Z,24.10
2019-02-06T04:18:26.053Z,23.25
2019-02-06T04:20:55.131Z,22.00
2019-02-06T04:23:24.701Z,22.70
2019-02-06T04:25:53.832Z,22.10
2019-02-06T04:28:23.271Z,22.67
2019-02-06T04:30:52.391Z,24.05
2019-02-06T04:33:21.502Z,24.15
2019-02-06T04:35:50.634Z,23.92
2019-02-06T04:38:19.742Z,33.55
2019-02-06T04:40:48.758Z,29.27
2019-02-06T04:43:17.940Z,25.12
2019-02-06T04:45:47.051Z,24.23
2019-02-06T04:48:16.155Z,22.93
2019-02-06T04:50:45.259Z,22.67
2019-02-06T04:53:14.684Z,22.82
2019-02-06T04:55:43.786Z,27.13
2019-02-06T04:58:12.871Z,28.07
2019-02-06T05:00:41.976Z,26.97
2019-02-06T05:03:11.076Z,26.50
2019-02-06T05:05:40.187Z,24.55
2019-02-06T05:08:09.656Z,24.40
2019-02-06T05:10:38.738Z,37.95
2019-02-06T05:13:07.812Z,35.08
2019-02-06T05:15:36.897Z,26.95
2019-02-06T05:18:06.121Z,25.70
2019-02-06T05:20:37.475Z,23.73
2019-02-06T05:23:09.167Z,23.35
2019-02-06T05:25:38.547Z,22.00
2019-02-06T05:28:07.823Z,23.40
2019-02-06T05:30:36.949Z,23.20
2019-02-06T05:33:06.064Z,23.77
2019-02-06T05:35:35.152Z,23.27
2019-02-06T05:38:04.735Z,24.18
2019-02-06T05:40:33.819Z,22.45
2019-02-06T05:43:02.927Z,25.32
2019-02-06T05:45:32.023Z,25.27
2019-02-06T05:48:01.110Z,24.15
2019-02-06T05:50:30.234Z,22.73
2019-02-06T05:52:59.321Z,22.85
2019-02-06T05:55:28.794Z,22.98
2019-02-06T05:57:57.882Z,23.27
2019-02-06T06:00:32.541Z,24.25
2019-02-06T06:03:01.627Z,22.80
2019-02-06T06:05:30.721Z,22.10
2019-02-06T06:07:59.803Z,23.52
2019-02-06T06:10:29.179Z,22.42
2019-02-06T06:12:58.299Z,22.82
2019-02-06T06:15:27.441Z,21.60
2019-02-06T06:17:56.517Z,23.73
2019-02-06T06:20:25.612Z,22.90
2019-02-06T06:22:54.773Z,21.73
2019-02-06T06:25:23.954Z,23.55
2019-02-06T06:27:53.037Z,22.32
2019-02-06T06:30:22.145Z,21.17
2019-02-06T06:32:51.669Z,22.60
2019-02-06T06:35:20.756Z,21.48
2019-02-06T06:38:00.054Z,22.27
2019-02-06T06:40:22.102Z,21.77
2019-02-06T06:42:51.798Z,22.70
2019-02-06T06:45:22.444Z,22.37
2019-02-06T06:47:51.687Z,22.62
2019-02-06T06:50:22.307Z,22.42
2019-02-06T06:52:51.483Z,21.62
2019-02-06T06:55:20.559Z,23.52
2019-02-06T06:57:49.841Z,24.12
2019-02-06T07:00:21.347Z,22.52
2019-02-06T07:02:50.537Z,22.80
2019-02-06T07:05:19.633Z,23.75
2019-02-06T07:07:48.715Z,22.80
2019-02-06T07:10:17.817Z,22.62
2019-02-06T07:12:46.905Z,22.48
2019-02-06T07:15:21.409Z,22.40
2019-02-06T07:17:50.568Z,21.90
2019-02-06T07:20:19.720Z,22.30
2019-02-06T07:22:49.121Z,23.15
2019-02-06T07:25:19.258Z,22.37
2019-02-06T07:27:48.449Z,23.47
2019-02-06T07:30:29.032Z,24.87
2019-02-06T07:32:58.293Z,33.42
2019-02-06T07:35:27.901Z,35.30
2019-02-06T07:37:57.389Z,33.55
2019-02-06T07:40:26.587Z,30.15
2019-02-06T07:42:55.675Z,28.42
2019-02-06T07:45:24.877Z,26.93
2019-02-06T07:47:53.939Z,27.40
2019-02-06T07:50:28.097Z,28.57
2019-02-06T07:52:57.537Z,25.75
2019-02-06T07:55:26.734Z,27.50
2019-02-06T07:57:55.887Z,25.75
2019-02-06T08:00:24.989Z,25.57
2019-02-06T08:02:54.617Z,23.98
2019-02-06T08:05:23.753Z,23.65
2019-02-06T08:07:53.116Z,25.23
2019-02-06T08:10:24.649Z,24.82
2019-02-06T08:12:53.726Z,21.97
2019-02-06T08:15:22.963Z,24.18
2019-02-06T08:17:52.135Z,22.37
2019-02-06T08:20:21.385Z,22.17
2019-02-06T08:22:50.756Z,22.73
2019-02-06T08:25:20.159Z,21.48
2019-02-06T08:27:49.351Z,21.15
2019-02-06T08:30:26.760Z,22.65
2019-02-06T08:32:55.857Z,21.35
2019-02-06T08:35:24.959Z,22.10
2019-02-06T08:37:54.823Z,20.50
2019-02-06T08:40:24.695Z,22.05
2019-02-06T08:42:53.981Z,20.35
2019-02-06T08:45:23.177Z,23.27
2019-02-06T08:47:52.294Z,23.42
2019-02-06T08:50:21.623Z,23.35
2019-02-06T08:52:51.389Z,24.35
2019-02-06T08:55:22.279Z,24.77
2019-02-06T08:57:51.855Z,23.52
2019-02-06T09:00:26.625Z,25.52
2019-02-06T09:02:55.741Z,26.70
2019-02-06T09:05:25.300Z,25.85
2019-02-06T09:07:54.473Z,25.35
2019-02-06T09:10:24.225Z,24.20
2019-02-06T09:12:54.896Z,26.40
2019-02-06T09:15:27.102Z,24.05
2019-02-06T09:17:55.354Z,24.50
2019-02-06T09:20:25.977Z,25.08
2019-02-06T09:22:55.385Z,24.80
2019-02-06T09:25:24.792Z,23.38
2019-02-06T09:27:53.887Z,23.65
2019-02-06T09:30:25.069Z,23.47
2019-02-06T09:32:54.617Z,24.75
2019-02-06T09:35:24.099Z,24.27
2019-02-06T09:37:53.312Z,23.40
2019-02-06T09:40:24.345Z,23.43
2019-02-06T09:42:53.464Z,22.73
2019-02-06T09:45:22.548Z,21.67
2019-02-06T09:47:51.635Z,20.43
2019-02-06T09:50:26.680Z,20.90
2019-02-06T09:52:55.777Z,20.73
2019-02-06T09:55:24.910Z,20.47
2019-02-06T09:57:54.101Z,21.63
2019-02-06T10:00:26.028Z,21.77
2019-02-06T10:02:55.131Z,21.93
2019-02-06T10:05:24.603Z,21.67
2019-02-06T10:07:53.700Z,20.87
2019-02-06T10:10:23.966Z,18.80
2019-02-06T10:12:53.262Z,20.90
2019-02-06T10:15:24.818Z,19.30
2019-02-06T10:17:54.464Z,20.20
2019-02-06T10:20:25.474Z,19.43
2019-02-06T10:22:54.575Z,19.03
2019-02-06T10:25:23.674Z,19.30
2019-02-06T10:27:52.768Z,19.93
2019-02-06T10:30:33.989Z,18.23
2019-02-06T10:33:03.251Z,18.70
2019-02-06T10:35:32.382Z,19.37
2019-02-06T10:38:01.475Z,20.23
2019-02-06T10:40:30.849Z,19.87
2019-02-06T10:43:00.063Z,19.50
2019-02-06T10:45:29.232Z,18.67
2019-02-06T10:47:58.590Z,19.23
2019-02-06T10:50:30.284Z,19.70
2019-02-06T10:52:59.378Z,17.93
2019-02-06T10:55:28.970Z,19.90
2019-02-06T10:57:58.246Z,18.37
2019-02-06T11:00:33.071Z,19.67
2019-02-06T11:03:02.365Z,19.10
2019-02-06T11:05:31.474Z,18.50
2019-02-06T11:08:00.569Z,18.57
2019-02-06T11:10:29.776Z,19.73
2019-02-06T11:12:58.883Z,19.33
2019-02-06T11:15:28.987Z,18.90
2019-02-06T11:17:58.192Z,19.10
2019-02-06T11:20:28.339Z,20.10
2019-02-06T11:22:57.426Z,18.37
2019-02-06T11:25:26.511Z,18.77
2019-02-06T11:27:55.608Z,18.97
2019-02-06T11:30:26.077Z,19.67
2019-02-06T11:32:55.394Z,18.73
2019-02-06T11:35:24.561Z,19.00
2019-02-06T11:37:53.839Z,17.67
2019-02-06T11:40:24.223Z,17.73
2019-02-06T11:42:53.375Z,19.33
2019-02-06T11:45:25.757Z,17.17
2019-02-06T11:47:54.871Z,16.47
2019-02-06T11:50:29.925Z,16.67
2019-02-06T11:52:59.039Z,17.47
2019-02-06T11:55:28.199Z,17.40
2019-02-06T11:57:57.369Z,16.30
2019-02-06T12:00:49.203Z,15.90
2019-02-06T12:03:18.474Z,15.80
2019-02-06T12:05:47.680Z,17.40
2019-02-06T12:08:16.779Z,16.07
2019-02-06T12:10:46.343Z,15.40
2019-02-06T12:13:15.437Z,15.73
2019-02-06T12:15:44.552Z,16.37
2019-02-06T12:18:13.643Z,16.60
2019-02-06T12:20:42.707Z,14.53
2019-02-06T12:23:11.821Z,15.87
2019-02-06T12:25:40.898Z,15.33
2019-02-06T12:28:09.998Z,14.40
2019-02-06T12:30:39.155Z,13.33
2019-02-06T12:33:08.437Z,13.27
2019-02-06T12:35:37.637Z,13.67
2019-02-06T12:38:07.025Z,13.73
2019-02-06T12:40:36.333Z,13.03
2019-02-06T12:43:06.349Z,13.07
2019-02-06T12:45:35.835Z,12.63
2019-02-06T12:48:05.379Z,13.03
2019-02-06T12:50:34.467Z,12.33
2019-02-06T12:53:04.071Z,12.60
2019-02-06T12:55:34.415Z,12.43
2019-02-06T12:58:04.009Z,12.03
2019-02-06T13:00:33.789Z,11.53
2019-02-06T13:03:03.054Z,12.43
2019-02-06T13:05:32.315Z,12.33
2019-02-06T13:08:01.517Z,11.77
2019-02-06T13:10:34.517Z,11.40
2019-02-06T13:13:01.516Z,11.50
2019-02-06T13:15:30.699Z,11.23
2019-02-06T13:17:59.853Z,10.63
2019-02-06T13:20:29.748Z,10.10
2019-02-06T13:22:58.932Z,11.17
2019-02-06T13:25:28.068Z,10.07
2019-02-06T13:27:57.179Z,9.43
2019-02-06T13:30:34.393Z,11.13
2019-02-06T13:33:03.671Z,9.80
2019-02-06T13:35:32.960Z,9.13
2019-02-06T13:38:02.037Z,9.70
2019-02-06T13:40:31.223Z,10.07
2019-02-06T13:43:00.337Z,10.40
2019-02-06T13:45:32.233Z,10.07
2019-02-06T13:48:01.732Z,9.30
2019-02-06T13:50:30.916Z,9.73
2019-02-06T13:53:00.023Z,8.30
2019-02-06T13:55:29.223Z,9.03
2019-02-06T13:57:58.324Z,8.30
2019-02-06T14:00:32.525Z,8.63
2019-02-06T14:03:01.881Z,8.20
2019-02-06T14:05:32.227Z,9.50
2019-02-06T14:08:03.923Z,8.53
2019-02-06T14:10:33.014Z,8.17
2019-02-06T14:13:02.691Z,8.43
2019-02-06T14:15:34.410Z,8.63
2019-02-06T14:18:03.518Z,7.73
2019-02-06T14:20:32.697Z,8.67
2019-02-06T14:23:14.129Z,8.33
2019-02-06T14:25:50.562Z,8.93
2019-02-06T14:29:25.512Z,8.93
2019-02-06T14:32:32.609Z,8.43
2019-02-06T14:35:32.933Z,7.97
2019-02-06T14:38:33.365Z,8.37
2019-02-06T14:41:36.405Z,7.80
2019-02-06T14:44:43.347Z,7.13
2019-02-06T14:47:34.439Z,7.93
2019-02-06T14:50:20.495Z,7.77
2019-02-06T14:53:30.746Z,8.10
2019-02-06T14:56:49.203Z,7.40
2019-02-06T15:00:12.142Z,7.27
2019-02-06T15:03:33.881Z,7.70
2019-02-06T15:06:43.849Z,7.77
2019-02-06T15:10:07.029Z,8.70
2019-02-06T15:13:12.285Z,7.40
2019-02-06T15:16:28.922Z,8.27
2019-02-06T15:19:20.578Z,7.73
2019-02-06T15:22:40.019Z,8.37
2019-02-06T15:25:26.199Z,8.40
2019-02-06T15:28:45.470Z,8.43
2019-02-06T15:32:01.578Z,8.47
2019-02-06T15:34:58.978Z,7.77
2019-02-06T15:38:05.392Z,7.90
2019-02-06T15:40:47.793Z,7.97
2019-02-06T15:43:57.906Z,8.17
2019-02-06T15:47:08.622Z,8.23
2019-02-06T15:49:56.660Z,9.50
2019-02-06T15:52:57.852Z,9.73
2019-02-06T15:56:20.198Z,13.50
2019-02-06T15:59:31.967Z,12.07
2019-02-06T16:02:32.248Z,14.53
2019-02-06T16:05:43.924Z,10.47
2019-02-06T16:08:45.600Z,8.77
2019-02-06T16:11:59.246Z,8.23
2019-02-06T16:14:57.176Z,9.30
2019-02-06T16:17:51.426Z,9.83
2019-02-06T16:21:13.173Z,11.00
2019-02-06T16:24:13.725Z,9.67
2019-02-06T16:27:18.970Z,9.47
2019-02-06T16:30:15.836Z,8.63
2019-02-06T16:33:12.337Z,9.87
2019-02-06T16:36:17.516Z,9.33
2019-02-06T16:39:04.394Z,8.00
2019-02-06T16:42:15.442Z,8.43
2019-02-06T16:45:28.907Z,10.90
2019-02-06T16:48:51.334Z,12.27
2019-02-06T16:51:31.522Z,11.93
2019-02-06T16:54:24.606Z,12.63
2019-02-06T16:57:21.230Z,10.93
2019-02-06T17:00:19.596Z,11.83
2019-02-06T17:03:30.465Z,14.67
2019-02-06T17:06:37.100Z,13.93
2019-02-06T17:09:44.466Z,13.73
2019-02-06T17:12:57.666Z,13.23
2019-02-06T17:15:58.264Z,15.23
2019-02-06T17:18:42.794Z,12.73
2019-02-06T17:21:48.864Z,12.40
2019-02-06T17:24:47.164Z,12.13
2019-02-06T17:27:47.069Z,12.53
2019-02-06T17:30:59.811Z,11.93
2019-02-06T17:34:01.214Z,10.77
2019-02-06T17:36:52.195Z,10.53
2019-02-06T17:40:11.583Z,9.77
2019-02-06T17:43:28.757Z,11.20
2019-02-06T17:46:21.652Z,14.50
2019-02-06T17:49:41.381Z,12.47
2019-02-06T17:52:57.754Z,45.27
2019-02-06T17:55:27.242Z,42.90
2019-02-06T17:57:58.434Z,38.73
2019-02-06T18:00:47.566Z,38.73
2019-02-06T18:03:16.763Z,46.30
2019-02-06T18:05:46.330Z,33.27
2019-02-06T18:08:16.017Z,28.97
2019-02-06T18:10:45.228Z,23.67
2019-02-06T18:13:14.396Z,15.20
2019-02-06T18:15:43.581Z,13.93
2019-02-06T18:18:12.781Z,10.50
2019-02-06T18:20:42.466Z,10.17
2019-02-06T18:23:11.599Z,16.87
2019-02-06T18:25:41.603Z,41.70
2019-02-06T18:28:11.974Z,38.37
2019-02-06T18:30:41.207Z,32.13
2019-02-06T18:33:10.461Z,19.50
2019-02-06T18:35:40.471Z,12.53
2019-02-06T18:38:09.933Z,9.40
2019-02-06T18:40:42.419Z,9.80
2019-02-06T18:43:11.586Z,8.70
2019-02-06T18:45:40.668Z,7.93
2019-02-06T18:48:10.290Z,8.67
2019-02-06T18:50:40.317Z,8.47
2019-02-06T18:53:09.811Z,8.70
2019-02-06T18:55:39.282Z,8.13
2019-02-06T18:58:09.947Z,8.20
2019-02-06T19:00:39.353Z,8.50
2019-02-06T19:03:15.753Z,8.27
2019-02-06T19:05:44.911Z,8.23
2019-02-06T19:08:14.288Z,7.80
2019-02-06T19:10:44.244Z,8.10
2019-02-06T19:13:13.622Z,8.67
2019-02-06T19:15:42.784Z,7.50
2019-02-06T19:18:11.943Z,7.30
2019-02-06T19:20:41.108Z,9.93
2019-02-06T19:23:10.337Z,8.63
2019-02-06T19:25:39.700Z,8.80
2019-02-06T19:28:08.904Z,8.70
2019-02-06T19:30:39.114Z,9.40
2019-02-06T19:33:08.930Z,8.77
2019-02-06T19:35:38.112Z,9.67
2019-02-06T19:38:07.473Z,8.60
2019-02-06T19:40:36.715Z,8.33
2019-02-06T19:43:05.869Z,8.73
2019-02-06T19:45:35.523Z,8.83
2019-02-06T19:48:15.306Z,8.53
2019-02-06T19:50:37.742Z,10.33
2019-02-06T19:53:06.916Z,9.90
2019-02-06T19:55:36.114Z,31.60
2019-02-06T19:58:06.264Z,21.73
2019-02-06T20:00:35.593Z,14.00
2019-02-06T20:03:08.028Z,11.97
2019-02-06T20:05:36.868Z,11.27
2019-02-06T20:08:06.715Z,10.93
2019-02-06T20:10:38.355Z,9.87
2019-02-06T20:13:12.254Z,9.77
2019-02-06T20:15:38.394Z,10.23
2019-02-06T20:18:07.631Z,10.63
2019-02-06T20:20:36.816Z,11.00
2019-02-06T20:23:05.970Z,11.10
2019-02-06T20:25:35.171Z,10.30
2019-02-06T20:28:04.549Z,10.33
2019-02-06T20:30:34.163Z,10.95
2019-02-06T20:33:03.410Z,9.90
2019-02-06T20:35:32.659Z,10.72
2019-02-06T20:38:01.765Z,12.43
2019-02-06T20:40:32.889Z,12.05
2019-02-06T20:43:02.139Z,11.10
2019-02-06T20:45:31.918Z,12.43
2019-02-06T20:48:01.180Z,12.80
2019-02-06T20:50:32.024Z,14.07
2019-02-06T20:53:01.490Z,12.28
2019-02-06T20:55:30.686Z,12.95
2019-02-06T20:57:59.887Z,13.73
2019-02-06T21:00:34.489Z,13.10
2019-02-06T21:03:03.905Z,13.32
2019-02-06T21:05:33.117Z,15.50
2019-02-06T21:08:02.509Z,15.53
2019-02-06T21:10:31.741Z,17.45
2019-02-06T21:13:00.921Z,17.25
2019-02-06T21:15:32.691Z,17.40
2019-02-06T21:18:00.860Z,16.42
2019-02-06T21:20:29.990Z,17.40
2019-02-06T21:22:59.617Z,18.27
2019-02-06T21:25:28.803Z,17.40
2019-02-06T21:27:57.966Z,16.95
2019-02-06T21:30:32.086Z,16.95
2019-02-06T21:33:01.275Z,17.40
2019-02-06T21:35:30.441Z,18.00
2019-02-06T21:38:00.001Z,16.80
2019-02-06T21:40:31.166Z,18.70
2019-02-06T21:43:00.344Z,18.98
2019-02-06T21:45:29.665Z,19.77
2019-02-06T21:47:58.805Z,18.92
2019-02-06T21:50:28.036Z,18.92
2019-02-06T21:52:57.566Z,19.00
2019-02-06T21:55:26.764Z,20.00
2019-02-06T21:57:56.006Z,20.62
2019-02-06T22:00:30.324Z,21.48
2019-02-06T22:03:00.214Z,20.27
2019-02-06T22:05:29.474Z,20.48
2019-02-06T22:07:58.619Z,20.02
2019-02-06T22:10:27.733Z,21.55
2019-02-06T22:12:56.836Z,20.40
2019-02-06T22:15:26.915Z,21.62
2019-02-06T22:17:55.987Z,22.42
2019-02-06T22:20:26.202Z,21.93
2019-02-06T22:22:55.384Z,21.73
2019-02-06T22:25:24.579Z,21.20
2019-02-06T22:27:53.746Z,21.40
2019-02-06T22:30:24.793Z,21.90
2019-02-06T22:32:53.959Z,21.12
2019-02-06T22:35:23.663Z,22.67
2019-02-06T22:37:53.010Z,20.75
2019-02-06T22:40:23.291Z,20.97
2019-02-06T22:42:52.489Z,21.42
2019-02-06T22:45:23.445Z,20.15
2019-02-06T22:47:52.528Z,21.05
2019-02-06T22:50:23.887Z,22.17
2019-02-06T22:52:53.001Z,20.65
2019-02-06T22:55:22.105Z,24.25
2019-02-06T22:57:51.292Z,23.50
2019-02-06T23:00:50.254Z,22.75
2019-02-06T23:03:25.629Z,24.25
2019-02-06T23:05:54.714Z,25.30
2019-02-06T23:08:23.887Z,27.75
2019-02-06T23:10:53.072Z,42.35
2019-02-06T23:13:22.262Z,43.28
2019-02-06T23:15:51.430Z,43.23
2019-02-06T23:18:20.533Z,37.90
2019-02-06T23:20:49.631Z,36.13
2019-02-06T23:23:18.764Z,35.05
2019-02-06T23:25:47.958Z,28.20
2019-02-06T23:28:17.066Z,29.57
2019-02-06T23:30:46.166Z,28.02
2019-02-06T23:33:15.335Z,27.37
2019-02-06T23:35:44.462Z,27.37
2019-02-06T23:38:13.562Z,28.75
2019-02-06T23:40:42.730Z,27.77
2019-02-06T23:43:11.994Z,26.15
2019-02-06T23:45:41.158Z,27.00
2019-02-06T23:48:10.251Z,27.30
2019-02-06T23:50:39.418Z,28.50
2019-02-06T23:53:08.516Z,27.40
2019-02-06T23:55:37.580Z,25.45
2019-02-06T23:58:06.758Z,25.30
